Time;durP1;ratioP1;P1;durP2;ratioP2;P2;SDS_P1;SDS_P2;PMS_P1;PMS_P2;Temp;Humidity;BMP_temperature;BMP_pressure;BME280_temperature;BME280_humidity;BME280_pressure;Samples;Min_cycle;Max_cycle;Signal;HPM_P1;HPM_P2
2023/03/16 00:01:18;;;;;;;11.70;6.13;;;1.70;99.90;;;;;;5067261;28;20188;-38
2023/03/16 00:03:44;;;;;;;8.00;5.10;;;1.70;99.90;;;;;;5070045;28;20187;-38
2023/03/16 00:06:10;;;;;;;7.93;5.87;;;1.70;99.90;;;;;;5072671;28;20211;-39
2023/03/16 00:08:37;;;;;;;8.73;5.50;;;1.60;99.90;;;;;;5072569;28;20185;-39
2023/03/16 00:11:03;;;;;;;8.43;5.47;;;1.60;99.90;;;;;;5071921;28;20215;-39
2023/03/16 00:13:29;;;;;;;7.93;5.27;;;1.60;99.90;;;;;;5072804;28;20199;-39
2023/03/16 00:16:01;;;;;;;6.93;5.17;;;1.60;99.90;;;;;;5072149;28;20562;-41
2023/03/16 00:18:28;;;;;;;8.60;5.43;;;1.50;99.90;;;;;;5072845;28;20180;-38
2023/03/16 00:21:00;;;;;;;6.50;4.93;;;1.50;99.90;;;;;;5056138;28;20253;-38
2023/03/16 00:23:27;;;;;;;7.27;5.53;;;1.40;99.90;;;;;;5073698;28;20193;-39
2023/03/16 00:25:58;;;;;;;7.47;5.23;;;1.40;99.90;;;;;;5089104;28;20286;-39
2023/03/16 00:28:26;;;;;;;9.60;5.73;;;1.30;99.90;;;;;;5088584;28;20688;-39
2023/03/16 00:30:51;;;;;;;6.67;5.20;;;1.20;99.90;;;;;;5076976;28;20208;-40
2023/03/16 00:33:18;;;;;;;7.73;5.53;;;1.20;99.90;;;;;;5073828;28;20172;-37
2023/03/16 00:36:00;;;;;;;7.27;5.10;;;1.10;99.90;;;;;;5067854;28;20528;-38
2023/03/16 00:38:29;;;;;;;7.73;5.40;;;1.10;99.90;;;;;;5073818;28;20217;-38
2023/03/16 00:40:55;;;;;;;11.47;6.07;;;1.10;99.90;;;;;;5074254;28;20232;-38
2023/03/16 00:43:21;;;;;;;9.93;5.87;;;1.00;99.90;;;;;;5078095;28;20195;-37
2023/03/16 00:45:46;;;;;;;9.17;6.00;;;1.00;99.90;;;;;;5077660;28;20183;-39
2023/03/16 00:48:12;;;;;;;9.87;7.40;;;1.10;99.90;;;;;;5067706;28;20204;-38
2023/03/16 00:50:38;;;;;;;10.53;6.53;;;1.20;99.90;;;;;;5069847;28;20225;-39
2023/03/16 00:53:05;;;;;;;8.30;5.50;;;1.20;99.90;;;;;;5069270;28;20274;-38
2023/03/16 00:55:31;;;;;;;8.33;5.30;;;1.30;99.90;;;;;;5053740;28;20669;-38
2023/03/16 00:57:57;;;;;;;8.63;5.00;;;1.30;99.90;;;;;;5060990;28;20208;-38
2023/03/16 01:00:26;;;;;;;5.97;4.37;;;1.30;99.90;;;;;;5068510;28;20206;-38
2023/03/16 01:02:52;;;;;;;6.80;4.47;;;1.40;99.90;;;;;;5084573;28;20245;-39
2023/03/16 01:05:18;;;;;;;8.77;5.87;;;1.30;99.90;;;;;;5068062;28;20356;-38
2023/03/16 01:07:44;;;;;;;7.20;5.40;;;1.10;99.90;;;;;;5068796;28;20302;-37
2023/03/16 01:10:10;;;;;;;9.93;5.53;;;1.00;99.90;;;;;;5076105;28;20183;-38
2023/03/16 01:12:36;;;;;;;7.40;6.13;;;0.90;99.90;;;;;;5073230;28;20215;-38
2023/03/16 01:15:02;;;;;;;10.00;8.17;;;0.80;99.90;;;;;;5066974;28;20219;-38
2023/03/16 01:17:28;;;;;;;11.93;9.13;;;0.90;99.90;;;;;;5073328;28;20200;-39
2023/03/16 01:19:54;;;;;;;10.40;7.37;;;0.90;99.90;;;;;;5066969;28;20194;-39
2023/03/16 01:22:20;;;;;;;7.67;6.37;;;0.90;99.90;;;;;;5060016;28;20192;-38
2023/03/16 01:24:46;;;;;;;11.67;6.50;;;1.00;99.90;;;;;;5067172;28;20252;-38
2023/03/16 01:27:13;;;;;;;10.03;6.63;;;1.00;99.90;;;;;;5050512;28;20196;-38
2023/03/16 01:29:42;;;;;;;12.87;7.53;;;1.00;99.90;;;;;;5050688;28;20176;-38
2023/03/16 01:32:09;;;;;;;12.17;8.07;;;1.00;99.90;;;;;;5058917;28;20233;-39
2023/03/16 01:34:35;;;;;;;11.50;6.83;;;1.10;99.90;;;;;;5054525;28;20172;-38
2023/03/16 01:37:01;;;;;;;10.07;6.93;;;1.10;99.90;;;;;;5067630;28;20203;-39
2023/03/16 01:39:36;;;;;;;15.20;8.30;;;1.10;99.90;;;;;;5068714;28;20174;-41
2023/03/16 01:42:02;;;;;;;14.37;7.73;;;1.10;99.90;;;;;;5083131;28;20496;-38
2023/03/16 01:44:31;;;;;;;14.00;8.03;;;1.20;99.90;;;;;;5083787;28;20225;-39
2023/03/16 01:47:02;;;;;;;16.27;8.63;;;1.20;99.90;;;;;;5057688;28;20235;-39
2023/03/16 01:49:32;;;;;;;25.90;8.97;;;1.20;99.90;;;;;;5057690;28;20217;-40
2023/03/16 01:52:04;;;;;;;18.57;9.50;;;1.20;99.90;;;;;;5059519;28;20215;-38
2023/03/16 01:54:36;;;;;;;18.07;9.80;;;1.20;99.90;;;;;;5075417;28;20603;-38
2023/03/16 01:57:13;;;;;;;25.53;10.60;;;1.30;99.90;;;;;;5065516;28;20204;-38
2023/03/16 01:59:42;;;;;;;16.23;10.13;;;1.30;99.90;;;;;;5084075;28;20686;-39
2023/03/16 02:02:10;;;;;;;15.53;9.80;;;1.30;99.90;;;;;;5071190;28;20186;-39
2023/03/16 02:05:06;;;;;;;16.33;11.03;;;1.30;99.90;;;;;;5058931;28;20266;-39
2023/03/16 02:07:41;;;;;;;26.63;11.70;;;1.40;99.90;;;;;;5085237;28;20196;-40
2023/03/16 02:10:10;;;;;;;20.13;11.23;;;1.40;99.90;;;;;;5083009;28;20191;-39
2023/03/16 02:12:36;;;;;;;19.37;11.43;;;1.40;99.90;;;;;;5075375;28;20183;-38
2023/03/16 02:15:03;;;;;;;14.80;11.50;;;1.40;99.90;;;;;;5065012;28;20193;-39
2023/03/16 02:17:31;;;;;;;14.23;11.07;;;1.50;99.90;;;;;;5084077;28;20284;-39
2023/03/16 02:20:10;;;;;;;18.60;11.83;;;1.50;99.90;;;;;;5083437;28;20215;-39
2023/03/16 02:22:46;;;;;;;18.13;12.67;;;1.50;99.90;;;;;;5072729;28;20183;-39
2023/03/16 02:25:15;;;;;;;18.90;12.13;;;1.50;99.90;;;;;;5072543;28;20176;-41
2023/03/16 02:28:17;;;;;;;54.37;12.13;;;1.60;99.90;;;;;;5058008;28;20192;-38
2023/03/16 02:30:46;;;;;;;13.33;8.37;;;1.50;99.90;;;;;;5067172;28;20257;-38
2023/03/16 02:33:13;;;;;;;31.50;9.53;;;1.30;99.90;;;;;;5062660;28;20179;-39
2023/03/16 02:35:39;;;;;;;45.20;11.57;;;1.20;99.90;;;;;;5059464;28;20644;-38
2023/03/16 02:38:05;;;;;;;17.83;9.57;;;1.00;99.90;;;;;;5075719;28;20685;-37
2023/03/16 02:40:37;;;;;;;14.50;9.30;;;1.10;99.90;;;;;;5055649;28;20192;-39
2023/03/16 02:43:13;;;;;;;24.00;9.93;;;1.20;99.90;;;;;;5082985;28;20194;-39
2023/03/16 02:45:47;;;;;;;29.17;12.03;;;1.20;99.90;;;;;;5064892;28;20187;-38
2023/03/16 02:48:23;;;;;;;20.70;11.17;;;1.10;99.90;;;;;;5066875;28;20201;-39
2023/03/16 02:50:51;;;;;;;34.67;12.53;;;1.10;99.90;;;;;;5064978;28;20206;-38
2023/03/16 02:53:18;;;;;;;29.03;12.60;;;1.10;99.90;;;;;;5084590;28;20267;-38
2023/03/16 02:55:45;;;;;;;23.53;12.37;;;1.00;99.90;;;;;;5058694;28;20194;-38
2023/03/16 02:58:12;;;;;;;27.87;13.40;;;0.90;99.90;;;;;;5074633;28;20205;-38
2023/03/16 03:00:38;;;;;;;17.80;12.03;;;1.00;99.90;;;;;;5067946;28;20179;-40
2023/03/16 03:03:05;;;;;;;21.97;13.30;;;1.10;99.90;;;;;;5074351;28;20233;-39
2023/03/16 03:05:31;;;;;;;23.60;12.60;;;1.10;99.90;;;;;;5064643;28;20183;-38
2023/03/16 03:07:57;;;;;;;24.60;11.97;;;1.10;99.90;;;;;;5083500;28;20215;-38
2023/03/16 03:10:23;;;;;;;23.77;12.07;;;1.00;99.90;;;;;;5083819;28;20188;-38
2023/03/16 03:12:48;;;;;;;20.60;11.73;;;1.00;99.90;;;;;;5083104;28;20190;-39
2023/03/16 03:15:16;;;;;;;18.83;12.20;;;1.00;99.90;;;;;;5084457;28;20189;-39
2023/03/16 03:17:52;;;;;;;15.47;10.73;;;1.00;99.90;;;;;;5065838;28;20206;-38
2023/03/16 03:20:20;;;;;;;25.80;11.23;;;1.10;99.90;;;;;;5075879;28;20189;-39
2023/03/16 03:22:48;;;;;;;16.33;10.23;;;1.10;99.90;;;;;;5056361;28;20582;-39
2023/03/16 03:25:17;;;;;;;15.47;10.93;;;1.10;99.90;;;;;;5063008;28;20191;-38
2023/03/16 03:27:44;;;;;;;15.73;10.27;;;1.10;99.90;;;;;;5065669;28;20287;-39
2023/03/16 03:30:15;;;;;;;12.83;9.03;;;1.10;99.90;;;;;;5065868;28;20183;-40
2023/03/16 03:32:42;;;;;;;19.20;11.20;;;1.10;99.90;;;;;;5067782;28;20175;-38
2023/03/16 03:35:11;;;;;;;20.67;9.60;;;1.10;99.90;;;;;;5083639;28;20298;-37
2023/03/16 03:37:41;;;;;;;13.27;9.37;;;1.10;99.90;;;;;;5066795;28;20202;-39
2023/03/16 03:40:10;;;;;;;34.13;10.23;;;1.10;99.90;;;;;;5076313;28;20183;-38
2023/03/16 03:42:36;;;;;;;48.87;9.73;;;1.00;99.90;;;;;;5087347;28;20178;-38
2023/03/16 03:45:05;;;;;;;26.57;9.97;;;0.90;99.90;;;;;;5070068;28;20194;-38
2023/03/16 03:47:31;;;;;;;32.73;10.00;;;0.70;99.90;;;;;;5086802;28;20192;-38
2023/03/16 03:49:58;;;;;;;15.37;10.20;;;0.70;99.90;;;;;;5076659;28;20192;-39
2023/03/16 03:52:24;;;;;;;16.67;10.83;;;0.70;99.90;;;;;;5071433;28;20218;-38
2023/03/16 03:54:50;;;;;;;19.10;10.70;;;0.80;99.90;;;;;;5068579;28;20182;-39
2023/03/16 03:57:17;;;;;;;13.00;10.53;;;0.80;99.90;;;;;;5057456;28;20211;-39
2023/03/16 03:59:43;;;;;;;27.97;12.20;;;0.70;99.90;;;;;;5069900;28;20179;-38
2023/03/16 04:02:24;;;;;;;19.03;11.83;;;0.70;99.90;;;;;;5069839;28;20189;-38
2023/03/16 04:04:53;;;;;;;41.43;14.13;;;0.70;99.90;;;;;;5066677;28;20181;-39
2023/03/16 04:07:19;;;;;;;21.03;12.53;;;0.70;99.90;;;;;;5059655;28;20248;-39
2023/03/16 04:09:45;;;;;;;22.00;12.63;;;0.70;99.90;;;;;;5070783;28;20275;-39
2023/03/16 04:12:25;;;;;;;23.57;12.77;;;0.70;99.90;;;;;;5084149;28;20210;-38
2023/03/16 04:14:51;;;;;;;26.40;11.47;;;0.60;99.90;;;;;;5085712;28;20288;-39
2023/03/16 04:17:19;;;;;;;56.83;14.60;;;0.50;99.90;;;;;;5087614;28;20254;-37
2023/03/16 04:19:47;;;;;;;17.77;12.50;;;0.40;99.90;;;;;;5084539;28;20182;-39
2023/03/16 04:22:15;;;;;;;21.60;14.10;;;0.40;99.90;;;;;;5061732;28;20611;-41
2023/03/16 04:24:43;;;;;;;22.73;13.57;;;0.60;99.90;;;;;;5087128;28;20181;-37
2023/03/16 04:27:11;;;;;;;20.87;13.77;;;0.60;99.90;;;;;;5069389;28;20260;-37
2023/03/16 04:29:37;;;;;;;53.37;15.77;;;0.70;99.90;;;;;;5069488;28;20423;-39
2023/03/16 04:32:07;;;;;;;47.47;14.40;;;0.70;99.90;;;;;;5087169;28;20214;-38
2023/03/16 04:34:34;;;;;;;44.03;14.67;;;0.60;99.90;;;;;;5052321;28;20175;-38
2023/03/16 04:37:03;;;;;;;16.77;12.70;;;0.50;99.90;;;;;;5076480;28;20765;-40
2023/03/16 04:39:31;;;;;;;18.80;12.73;;;0.50;99.90;;;;;;5067415;28;20274;-39
2023/03/16 04:41:57;;;;;;;22.00;13.30;;;0.60;99.90;;;;;;5067153;28;20334;-39
2023/03/16 04:44:24;;;;;;;33.70;13.20;;;0.60;99.90;;;;;;5073703;28;20191;-39
2023/03/16 04:46:50;;;;;;;35.00;12.63;;;0.60;99.90;;;;;;5077453;28;20211;-39
2023/03/16 04:49:17;;;;;;;63.40;13.43;;;0.50;99.90;;;;;;5083756;28;20254;-39
2023/03/16 04:51:44;;;;;;;24.67;12.50;;;0.40;99.90;;;;;;5055828;28;20260;-39
2023/03/16 04:54:14;;;;;;;35.33;12.80;;;0.40;99.90;;;;;;5067073;28;20181;-38
2023/03/16 04:56:42;;;;;;;24.97;12.63;;;0.30;99.90;;;;;;5065861;28;20289;-40
2023/03/16 04:59:19;;;;;;;21.40;12.17;;;0.30;99.90;;;;;;5076269;28;20187;-39
2023/03/16 05:01:52;;;;;;;39.60;14.20;;;0.40;99.90;;;;;;5067404;28;20186;-39
2023/03/16 05:04:20;;;;;;;40.57;14.13;;;0.40;99.90;;;;;;5074425;28;20189;-42
2023/03/16 05:06:47;;;;;;;27.60;14.03;;;0.30;99.90;;;;;;5075596;28;20201;-39
2023/03/16 05:09:15;;;;;;;19.40;13.10;;;0.30;99.90;;;;;;5069241;28;20549;-39
2023/03/16 05:11:41;;;;;;;25.10;13.43;;;0.40;99.90;;;;;;5068216;28;20218;-39
2023/03/16 05:14:10;;;;;;;27.53;13.13;;;0.40;99.90;;;;;;5070139;28;20258;-40
2023/03/16 05:16:51;;;;;;;19.33;11.67;;;0.50;99.90;;;;;;5058315;28;20194;-41
2023/03/16 05:19:17;;;;;;;33.83;12.93;;;0.40;99.90;;;;;;5086349;28;20187;-40
2023/03/16 05:21:44;;;;;;;24.57;13.50;;;0.50;99.90;;;;;;5069564;28;20200;-39
2023/03/16 05:24:13;;;;;;;20.70;12.63;;;0.30;99.90;;;;;;5085841;28;20202;-39
2023/03/16 05:26:39;;;;;;;32.10;12.67;;;0.40;99.90;;;;;;5070685;28;20204;-39
2023/03/16 05:29:09;;;;;;;19.83;13.17;;;0.30;99.90;;;;;;5067590;28;20174;-39
2023/03/16 05:31:36;;;;;;;21.33;13.27;;;0.30;99.90;;;;;;5070971;28;20263;-39
2023/03/16 05:34:08;;;;;;;22.37;13.00;;;0.40;99.90;;;;;;5057169;28;20182;-39
2023/03/16 05:36:35;;;;;;;34.63;13.73;;;0.40;99.90;;;;;;5068905;28;20195;-39
2023/03/16 05:39:07;;;;;;;17.17;11.60;;;0.40;99.90;;;;;;5068989;28;20182;-39
2023/03/16 05:41:39;;;;;;;15.03;11.17;;;0.40;99.90;;;;;;5074414;28;20179;-40
2023/03/16 05:44:12;;;;;;;28.10;12.13;;;0.20;99.90;;;;;;5068436;28;20250;-38
2023/03/16 05:46:56;;;;;;;20.77;12.33;;;0.30;99.90;;;;;;5068207;28;20258;-42
2023/03/16 05:49:22;;;;;;;18.93;12.77;;;0.30;99.90;;;;;;5069095;28;20277;-39
2023/03/16 05:51:49;;;;;;;17.87;11.60;;;0.30;99.90;;;;;;5052055;28;20206;-39
2023/03/16 05:54:15;;;;;;;31.80;14.00;;;0.40;99.90;;;;;;5068417;28;20209;-39
2023/03/16 05:56:43;;;;;;;14.17;10.77;;;0.30;99.90;;;;;;5075780;28;20198;-40
2023/03/16 05:59:09;;;;;;;28.57;12.73;;;0.30;99.90;;;;;;5068844;28;20180;-39
2023/03/16 06:01:36;;;;;;;16.80;10.73;;;0.30;99.90;;;;;;5073207;28;20189;-44
2023/03/16 06:04:04;;;;;;;15.10;10.53;;;0.30;99.90;;;;;;5069510;28;20182;-39
2023/03/16 06:06:36;;;;;;;20.60;10.70;;;0.30;99.90;;;;;;5070198;28;20201;-39
2023/03/16 06:09:20;;;;;;;18.40;11.03;;;0.30;99.90;;;;;;5070216;28;20210;-39
2023/03/16 06:11:47;;;;;;;26.23;12.00;;;0.20;99.90;;;;;;5086560;28;20225;-39
2023/03/16 06:14:16;;;;;;;37.60;16.70;;;0.20;99.90;;;;;;5069704;28;20232;-39
2023/03/16 06:16:44;;;;;;;14.57;10.17;;;0.10;99.90;;;;;;5063827;28;20208;-39
2023/03/16 06:19:10;;;;;;;14.27;10.57;;;0.00;99.90;;;;;;5059182;28;20179;-39
2023/03/16 06:21:35;;;;;;;16.40;11.57;;;0.10;99.90;;;;;;5069427;28;20184;-39
2023/03/16 06:24:09;;;;;;;19.53;12.47;;;0.20;99.90;;;;;;5054574;28;20174;-39
2023/03/16 06:26:37;;;;;;;17.83;11.77;;;0.20;99.90;;;;;;5069998;28;20682;-39
2023/03/16 06:29:06;;;;;;;32.30;12.80;;;0.30;99.90;;;;;;5063336;28;20272;-38
2023/03/16 06:31:37;;;;;;;17.10;11.17;;;0.20;99.90;;;;;;5078904;28;20223;-38
2023/03/16 06:34:03;;;;;;;24.00;12.03;;;0.20;99.90;;;;;;5067967;28;20174;-38
2023/03/16 06:36:32;;;;;;;23.50;12.13;;;0.00;99.90;;;;;;5071174;28;20224;-38
2023/03/16 06:39:01;;;;;;;22.20;12.83;;;-0.10;99.90;;;;;;5067764;28;20179;-38
2023/03/16 06:41:37;;;;;;;41.03;12.83;;;-0.10;99.90;;;;;;5068001;28;20177;-39
2023/03/16 06:44:04;;;;;;;22.53;12.70;;;-0.10;99.90;;;;;;5067979;28;20190;-40
2023/03/16 06:46:32;;;;;;;17.40;12.83;;;-0.10;99.90;;;;;;5052527;28;20235;-44
2023/03/16 06:49:03;;;;;;;18.37;12.50;;;0.00;99.90;;;;;;5069047;28;20182;-42
2023/03/16 06:51:31;;;;;;;18.17;12.20;;;0.00;99.90;;;;;;5086084;28;20237;-38
2023/03/16 06:53:57;;;;;;;18.07;12.37;;;-0.10;99.90;;;;;;5067301;28;20169;-38
2023/03/16 06:56:24;;;;;;;17.23;11.90;;;-0.10;99.90;;;;;;5065767;28;20194;-39
2023/03/16 06:58:51;;;;;;;17.67;11.87;;;-0.20;99.90;;;;;;5069142;28;20199;-37
2023/03/16 07:01:17;;;;;;;22.90;12.57;;;0.00;99.90;;;;;;5063598;28;20192;-39
2023/03/16 07:03:43;;;;;;;23.13;12.27;;;0.00;99.90;;;;;;5054089;28;20185;-38
2023/03/16 07:06:20;;;;;;;15.07;11.50;;;-0.10;99.90;;;;;;5068254;28;20212;-38
2023/03/16 07:08:47;;;;;;;31.20;14.00;;;-0.10;99.90;;;;;;5068849;28;20178;-40
2023/03/16 07:11:13;;;;;;;27.57;12.80;;;-0.20;99.90;;;;;;5071552;28;20202;-38
2023/03/16 07:13:40;;;;;;;27.17;17.47;;;-0.20;99.90;;;;;;5071014;28;20189;-40
2023/03/16 07:16:07;;;;;;;19.93;13.37;;;-0.20;99.90;;;;;;5087048;28;20190;-38
2023/03/16 07:18:33;;;;;;;19.80;12.80;;;-0.10;99.90;;;;;;5086587;28;20256;-37
2023/03/16 07:21:00;;;;;;;19.07;12.77;;;0.00;99.90;;;;;;5070154;28;20179;-38
2023/03/16 07:23:26;;;;;;;18.43;12.63;;;0.10;99.90;;;;;;5069955;28;20227;-38
2023/03/16 07:25:57;;;;;;;16.40;11.77;;;0.20;99.90;;;;;;5070442;28;20264;-37
2023/03/16 07:28:23;;;;;;;15.70;11.80;;;0.30;99.90;;;;;;5053138;28;20309;-37
2023/03/16 07:30:50;;;;;;;19.17;12.33;;;0.40;99.90;;;;;;5069484;28;20269;-36
2023/03/16 07:33:16;;;;;;;19.43;12.53;;;0.50;99.90;;;;;;5069562;28;20178;-37
2023/03/16 07:35:43;;;;;;;16.53;11.83;;;0.50;99.90;;;;;;5069430;28;20228;-38
2023/03/16 07:38:11;;;;;;;15.63;11.43;;;0.60;99.90;;;;;;5086190;28;20682;-37
2023/03/16 07:40:39;;;;;;;16.07;11.63;;;0.60;99.90;;;;;;5086817;28;20181;-36
2023/03/16 07:43:12;;;;;;;14.70;11.07;;;0.70;99.90;;;;;;5069449;28;20174;-37
2023/03/16 07:45:48;;;;;;;17.67;12.07;;;0.80;99.90;;;;;;5069337;28;20177;-37
2023/03/16 07:48:17;;;;;;;15.87;11.70;;;0.80;99.90;;;;;;5069331;28;20199;-36
2023/03/16 07:50:49;;;;;;;16.23;11.27;;;0.90;99.90;;;;;;5086504;28;20214;-37
2023/03/16 07:53:16;;;;;;;17.90;11.73;;;0.90;99.90;;;;;;5086588;28;20645;-37
2023/03/16 07:55:45;;;;;;;18.33;12.97;;;1.00;99.90;;;;;;5069197;28;20175;-36
2023/03/16 07:58:11;;;;;;;26.63;13.00;;;1.10;99.90;;;;;;5086577;28;20289;-37
2023/03/16 08:00:41;;;;;;;14.57;11.40;;;1.00;99.90;;;;;;5069497;28;20262;-37
2023/03/16 08:03:08;;;;;;;17.37;12.43;;;1.10;99.90;;;;;;5069145;28;20203;-37
2023/03/16 08:05:34;;;;;;;15.43;11.67;;;1.20;99.90;;;;;;5086142;28;20183;-37
2023/03/16 08:08:08;;;;;;;16.63;12.97;;;1.30;99.90;;;;;;5086159;28;20230;-36
2023/03/16 08:10:35;;;;;;;17.43;11.80;;;1.30;99.90;;;;;;5069427;28;20233;-37
2023/03/16 08:13:13;;;;;;;13.97;10.93;;;1.30;99.90;;;;;;5084902;28;20172;-38
2023/03/16 08:15:47;;;;;;;14.83;11.17;;;1.40;99.90;;;;;;5086066;28;20242;-37
2023/03/16 08:18:28;;;;;;;15.37;11.67;;;1.60;99.90;;;;;;5069408;28;20270;-41
2023/03/16 08:20:56;;;;;;;18.20;11.60;;;1.70;99.90;;;;;;5069312;28;20183;-41
2023/03/16 08:23:23;;;;;;;18.73;12.60;;;1.50;99.90;;;;;;5086442;28;20187;-36
2023/03/16 08:25:54;;;;;;;18.50;12.10;;;1.60;99.90;;;;;;5069065;28;20583;-37
2023/03/16 08:28:24;;;;;;;22.50;13.33;;;1.80;99.90;;;;;;5089356;28;20208;-37
2023/03/16 08:30:52;;;;;;;15.13;11.57;;;1.90;99.90;;;;;;5262795;22;20232;-29
2023/03/16 08:33:45;;;;;;;15.40;11.80;;;2.00;99.90;;;;;;5063567;28;20180;-30
2023/03/16 08:36:15;;;;;;;13.47;10.90;;;2.10;99.90;;;;;;5069052;28;20207;-29
2023/03/16 08:38:45;;;;;;;15.60;10.53;;;2.30;99.90;;;;;;5068948;28;20203;-30
2023/03/16 08:41:11;;;;;;;15.63;11.87;;;2.40;99.90;;;;;;5035442;28;20178;-30
2023/03/16 08:43:38;;;;;;;13.90;10.87;;;2.50;99.90;;;;;;5052308;28;20304;-30
2023/03/16 08:46:05;;;;;;;12.83;10.20;;;2.60;99.90;;;;;;5052389;28;20279;-30
2023/03/16 08:48:41;;;;;;;13.47;10.27;;;2.70;99.90;;;;;;5037103;28;20188;-31
2023/03/16 08:51:09;;;;;;;13.60;10.43;;;2.70;99.90;;;;;;5068631;28;20217;-30
2023/03/16 08:53:38;;;;;;;13.17;10.57;;;2.90;99.90;;;;;;5052331;28;20223;-30
2023/03/16 08:56:09;;;;;;;11.87;10.13;;;3.20;99.90;;;;;;5052055;28;20189;-30
2023/03/16 08:58:35;;;;;;;12.73;9.80;;;3.40;99.90;;;;;;5052287;28;20178;-29
2023/03/16 09:01:04;;;;;;;13.77;10.07;;;3.50;99.90;;;;;;5048227;28;20210;-30
2023/03/16 09:03:31;;;;;;;12.03;9.97;;;3.60;99.90;;;;;;5068088;28;20185;-31
2023/03/16 09:06:11;;;;;;;11.20;9.50;;;3.80;99.90;;;;;;5068500;28;20209;-30
2023/03/16 09:08:40;;;;;;;10.90;9.33;;;4.00;99.90;;;;;;5053299;28;20177;-29
2023/03/16 09:11:08;;;;;;;12.57;10.00;;;4.20;99.90;;;;;;5051806;28;20205;-30
2023/03/16 09:13:35;;;;;;;11.90;9.97;;;4.40;99.90;;;;;;5051633;28;20723;-30
2023/03/16 09:16:01;;;;;;;12.50;10.70;;;4.50;99.90;;;;;;5051657;28;20181;-30
2023/03/16 09:18:27;;;;;;;14.30;11.07;;;4.60;99.90;;;;;;5051826;28;20201;-30
2023/03/16 09:20:57;;;;;;;11.77;10.07;;;4.70;99.90;;;;;;5053390;28;20280;-28
2023/03/16 09:23:25;;;;;;;12.40;10.53;;;4.80;99.90;;;;;;5051501;28;20181;-30
2023/03/16 09:25:52;;;;;;;11.70;10.00;;;4.90;99.90;;;;;;5052417;28;20212;-29
2023/03/16 09:28:18;;;;;;;12.20;9.60;;;5.10;99.90;;;;;;5068212;28;20212;-29
2023/03/16 09:30:44;;;;;;;14.50;10.80;;;5.30;99.90;;;;;;5047503;28;20242;-30
2023/03/16 09:33:10;;;;;;;13.87;10.93;;;5.50;99.90;;;;;;5048542;28;20224;-30
2023/03/16 09:35:36;;;;;;;9.97;8.97;;;5.60;99.90;;;;;;5052056;28;20186;-29
2023/03/16 09:38:03;;;;;;;11.10;8.93;;;5.70;99.90;;;;;;5052220;28;20168;-30
2023/03/16 09:40:30;;;;;;;10.83;9.53;;;5.70;99.90;;;;;;5034811;28;20310;-30
2023/03/16 09:43:14;;;;;;;10.87;9.60;;;5.90;99.90;;;;;;5051302;28;20648;-30
2023/03/16 09:45:44;;;;;;;12.87;9.00;;;6.10;99.90;;;;;;5034172;28;20275;-30
2023/03/16 09:48:11;;;;;;;9.50;7.93;;;6.20;99.90;;;;;;5052625;28;20191;-30
2023/03/16 09:50:39;;;;;;;8.87;7.50;;;6.40;99.90;;;;;;5067718;28;20258;-29
2023/03/16 09:53:29;;;;;;;10.13;8.17;;;6.50;99.90;;;;;;5067810;28;20255;-30
2023/03/16 09:56:02;;;;;;;10.30;8.83;;;6.80;99.90;;;;;;5050844;28;20177;-30
2023/03/16 09:58:29;;;;;;;9.43;8.30;;;6.90;99.90;;;;;;5051311;28;20172;-30
2023/03/16 10:01:04;;;;;;;9.30;7.83;;;7.10;99.90;;;;;;5030455;28;20255;-30
2023/03/16 10:03:53;;;;;;;9.13;8.13;;;7.10;99.90;;;;;;5066996;28;20203;-31
2023/03/16 10:06:19;;;;;;;9.80;8.67;;;7.20;99.90;;;;;;5051782;28;20188;-31
2023/03/16 10:08:59;;;;;;;12.23;9.17;;;7.20;99.90;;;;;;5067344;28;20185;-30
2023/03/16 10:11:41;;;;;;;9.70;8.70;;;7.20;99.90;;;;;;5066953;28;20295;-30
2023/03/16 10:14:53;;;;;;;11.83;8.67;;;7.40;99.90;;;;;;5050421;28;20175;-30
2023/03/16 10:17:29;;;;;;;10.10;8.60;;;7.60;99.90;;;;;;5012975;28;20177;-29
2023/03/16 10:20:13;;;;;;;11.37;8.43;;;7.80;99.90;;;;;;5029177;28;20233;-30
2023/03/16 10:22:43;;;;;;;7.70;6.67;;;8.00;99.90;;;;;;5036748;28;20285;-31
2023/03/16 10:25:34;;;;;;;8.33;6.80;;;8.10;99.90;;;;;;5050383;28;20248;-29
2023/03/16 10:28:00;;;;;;;8.57;6.77;;;8.10;99.90;;;;;;5067003;28;20178;-31
2023/03/16 10:30:37;;;;;;;10.60;7.40;;;8.20;99.90;;;;;;5047468;28;20217;-31
2023/03/16 10:33:26;;;;;;;8.33;6.90;;;8.30;99.90;;;;;;5046117;28;20204;-29
2023/03/16 10:36:26;;;;;;;7.93;6.50;;;8.50;99.90;;;;;;5051642;28;20184;-30
2023/03/16 10:38:56;;;;;;;10.17;5.80;;;8.50;99.90;;;;;;5051208;28;20220;-30
2023/03/16 10:41:31;;;;;;;7.13;5.13;;;8.70;99.90;;;;;;5051729;28;20260;-30
2023/03/16 10:44:08;;;;;;;6.87;5.40;;;8.70;99.90;;;;;;5033612;28;20177;-29
2023/03/16 10:46:40;;;;;;;6.20;5.60;;;9.00;99.90;;;;;;5051472;28;20178;-29
2023/03/16 10:49:20;;;;;;;5.97;5.37;;;8.90;99.90;;;;;;5066004;28;20216;-29
2023/03/16 10:51:46;;;;;;;6.87;4.87;;;9.10;99.90;;;;;;5033495;28;20209;-31
2023/03/16 10:54:23;;;;;;;5.40;4.53;;;9.30;99.90;;;;;;5050149;28;20184;-30
2023/03/16 10:56:49;;;;;;;5.70;4.83;;;9.60;99.90;;;;;;5051347;28;20191;-30
2023/03/16 10:59:26;;;;;;;6.70;5.27;;;9.80;99.90;;;;;;5049518;28;20190;-31
2023/03/16 11:01:52;;;;;;;5.70;4.60;;;9.90;99.90;;;;;;5042612;28;20177;-31
2023/03/16 11:04:19;;;;;;;6.07;4.80;;;10.10;99.90;;;;;;5050972;28;20193;-31
2023/03/16 11:06:54;;;;;;;6.07;4.77;;;10.30;99.90;;;;;;5051451;28;20260;-31
2023/03/16 11:09:29;;;;;;;7.13;4.57;;;10.50;99.90;;;;;;5049765;28;20213;-31
2023/03/16 11:11:55;;;;;;;4.40;4.00;;;10.70;99.90;;;;;;5049628;28;20205;-30
2023/03/16 11:14:26;;;;;;;6.53;4.93;;;10.90;99.90;;;;;;5049534;28;20187;-30
2023/03/16 11:17:01;;;;;;;3.87;3.27;;;10.90;99.90;;;;;;5051252;28;20178;-30
2023/03/16 11:19:34;;;;;;;4.80;3.00;;;10.90;99.90;;;;;;5050957;28;20682;-30
2023/03/16 11:22:12;;;;;;;5.33;3.13;;;10.90;99.90;;;;;;5066449;28;20186;-30
2023/03/16 11:24:48;;;;;;;3.47;2.73;;;10.80;99.90;;;;;;5049509;28;20179;-30
2023/03/16 11:27:23;;;;;;;2.60;2.40;;;11.00;99.90;;;;;;5050791;28;20182;-31
2023/03/16 11:30:08;;;;;;;4.33;2.40;;;11.20;99.90;;;;;;5049107;28;20232;-30
2023/03/16 11:32:39;;;;;;;3.23;2.63;;;11.40;99.90;;;;;;5034540;28;20199;-30
2023/03/16 11:35:20;;;;;;;3.20;2.30;;;11.50;99.90;;;;;;5066097;28;20214;-30
2023/03/16 11:38:15;;;;;;;2.63;2.30;;;11.70;99.90;;;;;;5066348;28;20229;-30
2023/03/16 11:41:46;;;;;;;3.20;2.50;;;11.90;99.90;;;;;;5049031;28;20208;-30
2023/03/16 11:44:30;;;;;;;2.47;2.20;;;12.10;99.90;;;;;;5025207;28;20182;-29
2023/03/16 11:47:18;;;;;;;2.67;2.40;;;12.30;99.90;;;;;;5028400;28;20182;-31
2023/03/16 11:49:50;;;;;;;3.50;2.07;;;12.50;99.90;;;;;;5062988;28;20206;-31
2023/03/16 11:52:40;;;;;;;4.67;2.30;;;12.70;99.90;;;;;;5049273;28;20301;-32
2023/03/16 11:55:18;;;;;;;4.33;2.50;;;12.90;99.90;;;;;;5049429;28;20174;-30
2023/03/16 11:57:56;;;;;;;2.43;2.17;;;13.00;99.90;;;;;;5049328;28;20268;-29
2023/03/16 12:01:00;;;;;;;2.60;1.93;;;12.80;99.90;;;;;;5050021;28;20201;-31
2023/03/16 12:03:26;;;;;;;3.73;2.27;;;13.10;99.90;;;;;;4992008;28;20213;-31
2023/03/16 12:06:19;;;;;;;4.30;2.43;;;12.70;99.90;;;;;;5027892;28;20241;-31
2023/03/16 12:09:00;;;;;;;4.33;2.00;;;12.90;99.90;;;;;;5031223;28;20202;-31
2023/03/16 12:11:44;;;;;;;2.33;1.60;;;13.20;99.90;;;;;;5034360;28;20212;-31
2023/03/16 12:14:28;;;;;;;3.20;1.90;;;13.40;99.90;;;;;;5029263;28;20206;-31
2023/03/16 12:16:58;;;;;;;2.53;1.70;;;13.50;99.90;;;;;;5048957;28;20181;-31
2023/03/16 12:19:52;;;;;;;2.70;1.70;;;13.80;99.90;;;;;;5030457;28;20281;-31
2023/03/16 12:22:27;;;;;;;1.53;1.20;;;14.10;99.90;;;;;;5020365;28;20167;-31
2023/03/16 12:24:53;;;;;;;1.50;1.20;;;14.30;99.90;;;;;;5030749;28;20171;-31
2023/03/16 12:27:40;;;;;;;2.80;1.43;;;14.10;99.90;;;;;;5041884;28;20187;-30
2023/03/16 12:30:19;;;;;;;1.20;0.90;;;14.40;99.90;;;;;;5041291;28;20275;-30
2023/03/16 12:32:52;;;;;;;1.33;1.23;;;14.20;99.90;;;;;;5027969;28;20211;-31
2023/03/16 12:35:21;;;;;;;1.83;1.43;;;14.20;99.90;;;;;;5029660;28;20252;-31
2023/03/16 12:37:57;;;;;;;1.33;1.10;;;14.00;99.90;;;;;;5036891;28;20175;-32
2023/03/16 12:40:45;;;;;;;1.33;0.93;;;14.30;99.90;;;;;;5030996;28;20206;-31
2023/03/16 12:43:41;;;;;;;1.63;1.07;;;14.50;99.90;;;;;;5008229;28;20195;-31
2023/03/16 12:46:12;;;;;;;1.00;0.80;;;14.50;99.90;;;;;;5040949;28;20189;-31
2023/03/16 12:48:59;;;;;;;0.90;0.70;;;14.70;99.90;;;;;;5048833;28;20274;-31
2023/03/16 12:51:35;;;;;;;1.90;0.97;;;15.00;99.90;;;;;;5032814;28;20214;-32
2023/03/16 12:54:01;;;;;;;2.43;1.60;;;15.00;99.90;;;;;;5032013;28;20251;-31
2023/03/16 12:56:35;;;;;;;1.30;1.20;;;15.10;99.90;;;;;;5031922;28;20218;-32
2023/03/16 12:59:06;;;;;;;2.07;1.00;;;15.10;99.90;;;;;;5032826;28;20203;-31
2023/03/16 13:01:42;;;;;;;1.37;1.00;;;15.00;99.90;;;;;;5016101;28;20178;-32
2023/03/16 13:04:15;;;;;;;1.97;1.03;;;15.00;99.90;;;;;;5039826;28;20178;-31